Portada
METAR-TAF:

METAR-TAF

Aeropuertos :

Kingston, Jamaica

Aeropuerto Internacional Norman Manley

latitud: 17-56N, longitud: 076-47W, altitud: 3 m

Observación

El informe se hizo hace 57 minutos, a las 09:00 UTC
Viento 5 kt del este
Temperatura 29°C
Humedad 62%
Presión 1012 hPa
Visibilidad 10 km o más
Escasas nubes a una altura de 2400 ft

METAR: MKJP 230900Z 08005KT 9999 FEW024 29/21 Q1012

Hora: 04:57 (09:57 UTC)

Pronóstico

El informe se hizo hace 4 horas y 42 minutos, a las 05:15 UTC
Pronóstico válido del 23 a las 06 UTC al 24 a las 06 UTC
Viento 10 kt del sureste
Visibilidad 10 km o más
Evolucionando progresivamente
del 23 a las 12 UTC al 23 a las 14 UTC
Viento 20 kt del sureste
Escasas nubes a una altura de 2200 ft, Cumulonimbus.
Evolucionando progresivamente
del 24 a las 02 UTC al 24 a las 04 UTC
Viento 5 kt del norte

TAF: MKJP 230515Z 2306/2406 13010KT 9999 FE0W24 BECMG 2312/2314 14020KT FEW022CB BECMG 2402/2404 36005KT

Observaciones y pronósticos meteorológicos de más de 4000 aeropuertos (mensajes METAR y TAF).

Los puntos amarillos y rojos representan las estaciones disponibles.

Ponga el ratón en el punto deseado para ver el nombre de la estación.

Haga clic para ver las observaciones y los pronósticos meteorológicos.

Para cambiar el mapa : haga clic en los botones verdes con una cruz de color negro para hacer un zoom, en el botón verde con un guión para alejar o en las flechas verdes para mapas adyacentes.


METAR-TAF: